KDLN

Details ICAO KDLN
Name Dillon
Region United States
Timezone America/Denver (UTC-7.0)
Plans Departing 4
Arriving 7
Stats Elevation 5,241 ft / 1,597 m (AMSL)
Location 45.254607° -112.552629°
Runways 2
Magnetic Variation 12.407° E
Sunrise 2017-12-15 15:04:11 UTC / 2017-12-15 08:04:11 Local
Sunset 2017-12-15 23:49:37 UTC / 2017-12-15 16:49:37 Local
Advertisement - Login to hide

Runways

ID Width Length Bearing (true) Bearing (mag) Surface Threshold Offset Overrun Length
03 60 ft / 18 m 3,593 ft / 1,095 m 50.03° 37.62° Asphalt 0 ft / 0 m 0 ft / 0 m
16 75 ft / 23 m 6,504 ft / 1,983 m 178.60° 166.19° Asphalt 0 ft / 0 m 0 ft / 0 m
21 60 ft / 18 m 3,593 ft / 1,095 m 230.04° 217.63° Asphalt 0 ft / 0 m 0 ft / 0 m
34 75 ft / 23 m 6,504 ft / 1,983 m 358.60° 346.19° Asphalt 0 ft / 0 m 0 ft / 0 m

Map

Weather


0- 5 10 15 20 25 30 35+ Temperature / ° C

Clouds and Precipitation
Forecast for 2017-12-15 18:00 UTC. Updated an hour ago

Ground ~20,000 ft ~40,000 ft Winds

METAR

KDLN 151753Z AUTO 21014KT 10SM CLR M01/M06 A3005 RMK AO2 SLP221 T10061061 11006 21039 58007

TAF

Not found

Frequencies

Recorded 135.22 MHz ASOS
Unicom 122.80 MHz CTAF/UNICOM
Unicom 122.80 MHz CTAF/UNICOM
Warning: Do not use this data for real-world aviation or navigation. No guarantee of current accuracy is given.